Time;durP1;ratioP1;P1;durP2;ratioP2;P2;SDS_P1;SDS_P2;PMS_P1;PMS_P2;Temp;Humidity;BMP_temperature;BMP_pressure;BME280_temperature;BME280_humidity;BME280_pressure;Samples;Min_cycle;Max_cycle;Signal;HPM_P1;HPM_P2
2023/09/28 00:01:16;;;;;;;6.85;4.43;;;;;;;;;;5022751;28;20052;-71
2023/09/28 00:03:45;;;;;;;8.15;3.83;;;;;;;;;;5020173;28;20050;-71
2023/09/28 00:06:12;;;;;;;5.97;4.22;;;;;;;;;;5004445;28;20140;-70
2023/09/28 00:08:38;;;;;;;5.05;3.58;;;;;;;;;;5011266;28;20792;-70
2023/09/28 00:11:05;;;;;;;6.28;3.83;;;;;;;;;;5023356;28;20137;-71
2023/09/28 00:13:32;;;;;;;8.63;4.13;;;;;;;;;;5024045;28;20058;-71
2023/09/28 00:15:58;;;;;;;4.43;3.65;;;;;;;;;;5022591;28;20101;-73
2023/09/28 00:18:25;;;;;;;6.75;3.70;;;;;;;;;;5023269;28;20137;-72
2023/09/28 00:20:51;;;;;;;8.32;4.35;;;;;;;;;;5019078;28;20054;-72
2023/09/28 00:23:18;;;;;;;7.00;3.97;;;;;;;;;;5018025;28;20104;-71
2023/09/28 00:25:46;;;;;;;4.85;3.30;;;;;;;;;;5022732;28;20592;-71
2023/09/28 00:28:13;;;;;;;5.55;3.50;;;;;;;;;;5023136;28;20057;-71
2023/09/28 00:30:39;;;;;;;5.18;3.92;;;;;;;;;;5023995;28;20100;-70
2023/09/28 00:33:06;;;;;;;6.40;3.78;;;;;;;;;;5023796;28;20058;-71
2023/09/28 00:35:32;;;;;;;7.78;3.58;;;;;;;;;;5023667;28;20050;-71
2023/09/28 00:37:59;;;;;;;5.32;3.42;;;;;;;;;;5022684;28;20680;-71
2023/09/28 00:40:28;;;;;;;4.43;3.80;;;;;;;;;;5023620;28;20054;-71
2023/09/28 00:42:55;;;;;;;4.95;3.78;;;;;;;;;;5023902;28;20929;-71
2023/09/28 00:45:22;;;;;;;5.78;3.53;;;;;;;;;;5023940;28;20057;-70
2023/09/28 00:47:56;;;;;;;4.97;3.70;;;;;;;;;;5005192;28;20061;-71
2023/09/28 00:50:23;;;;;;;4.07;3.40;;;;;;;;;;5023951;28;20370;-71
2023/09/28 00:52:51;;;;;;;5.43;4.00;;;;;;;;;;5011238;28;20054;-71
2023/09/28 00:55:19;;;;;;;4.10;3.47;;;;;;;;;;5023407;28;20116;-71
2023/09/28 00:57:46;;;;;;;6.82;3.70;;;;;;;;;;5023889;28;20054;-71
2023/09/28 01:00:23;;;;;;;6.10;3.70;;;;;;;;;;5022131;28;20057;-71
2023/09/28 01:02:54;;;;;;;5.78;3.75;;;;;;;;;;5022039;28;20050;-71
2023/09/28 01:05:20;;;;;;;5.90;3.72;;;;;;;;;;5022220;28;20356;-71
2023/09/28 01:07:47;;;;;;;4.38;3.80;;;;;;;;;;5021921;28;20081;-71
2023/09/28 01:10:14;;;;;;;5.30;4.00;;;;;;;;;;5022927;28;20050;-71
2023/09/28 01:12:41;;;;;;;5.03;3.80;;;;;;;;;;5023515;28;20509;-70
2023/09/28 01:15:09;;;;;;;3.80;3.40;;;;;;;;;;5023626;28;20057;-70
2023/09/28 01:17:36;;;;;;;3.80;3.40;;;;;;;;;;5023969;28;20563;-71
2023/09/28 01:20:34;;;;;;;4.57;3.47;;;;;;;;;;5022940;28;20821;-71
2023/09/28 01:22:50;;;;;;;4.63;3.60;;;;;;;;;;5022935;28;20054;-71
2023/09/28 01:25:18;;;;;;;4.15;3.45;;;;;;;;;;5023112;28;20501;-71
2023/09/28 01:27:46;;;;;;;5.43;3.72;;;;;;;;;;5022897;28;20128;-72
2023/09/28 01:30:13;;;;;;;3.90;3.30;;;;;;;;;;5020898;28;20503;-71
2023/09/28 01:32:42;;;;;;;5.05;3.97;;;;;;;;;;5022961;28;20550;-71
2023/09/28 01:35:09;;;;;;;4.97;3.75;;;;;;;;;;5022572;28;20085;-71
2023/09/28 01:37:50;;;;;;;4.30;3.92;;;;;;;;;;5019096;28;20593;-71
2023/09/28 01:40:18;;;;;;;4.60;3.75;;;;;;;;;;5022969;28;20053;-71
2023/09/28 01:42:45;;;;;;;5.15;3.65;;;;;;;;;;5021795;28;20452;-71
2023/09/28 01:45:11;;;;;;;4.65;3.45;;;;;;;;;;5018432;28;20105;-71
2023/09/28 01:47:38;;;;;;;9.20;4.25;;;;;;;;;;4996315;28;20145;-72
2023/09/28 01:50:06;;;;;;;4.25;3.67;;;;;;;;;;5021359;28;20559;-70
2023/09/28 01:52:33;;;;;;;4.43;3.65;;;;;;;;;;5022096;28;20061;-70
2023/09/28 01:54:59;;;;;;;6.07;3.70;;;;;;;;;;5022101;28;20599;-70
2023/09/28 01:57:26;;;;;;;4.97;3.78;;;;;;;;;;5024396;28;20061;-71
2023/09/28 01:59:52;;;;;;;4.88;3.70;;;;;;;;;;5025626;28;20054;-70
2023/09/28 02:02:21;;;;;;;4.80;3.95;;;;;;;;;;5023273;28;20054;-71
2023/09/28 02:04:47;;;;;;;7.47;4.07;;;;;;;;;;5025388;28;20080;-70
2023/09/28 02:07:14;;;;;;;4.68;3.90;;;;;;;;;;5024559;28;20064;-70
2023/09/28 02:09:41;;;;;;;9.65;4.00;;;;;;;;;;5024695;28;22264;-70
2023/09/28 02:12:07;;;;;;;6.07;4.20;;;;;;;;;;5024271;28;20057;-70
2023/09/28 02:14:33;;;;;;;4.60;4.10;;;;;;;;;;5025171;28;20053;-71
2023/09/28 02:17:00;;;;;;;9.52;4.07;;;;;;;;;;5024277;28;20080;-70
2023/09/28 02:19:26;;;;;;;6.90;4.32;;;;;;;;;;5024205;28;20058;-70
2023/09/28 02:21:53;;;;;;;4.88;3.92;;;;;;;;;;5024498;28;20594;-70
2023/09/28 02:24:19;;;;;;;6.75;3.92;;;;;;;;;;5024474;28;20082;-70
2023/09/28 02:26:46;;;;;;;5.82;3.95;;;;;;;;;;5024141;28;20054;-71
2023/09/28 02:29:12;;;;;;;6.65;4.22;;;;;;;;;;5024667;28;20133;-71
2023/09/28 02:31:40;;;;;;;6.97;4.53;;;;;;;;;;5023380;28;20057;-70
2023/09/28 02:34:07;;;;;;;5.40;4.13;;;;;;;;;;5020071;28;20065;-71
2023/09/28 02:36:34;;;;;;;6.50;4.53;;;;;;;;;;5000247;28;20047;-71
2023/09/28 02:39:00;;;;;;;5.85;4.22;;;;;;;;;;5024427;28;20053;-71
2023/09/28 02:41:27;;;;;;;5.05;4.25;;;;;;;;;;5021390;28;20053;-71
2023/09/28 02:43:53;;;;;;;7.07;4.30;;;;;;;;;;5024198;28;20058;-71
2023/09/28 02:46:20;;;;;;;6.25;4.50;;;;;;;;;;4963248;28;1739659;-71
2023/09/28 02:48:47;;;;;;;6.80;4.65;;;;;;;;;;5025578;28;20056;-70
2023/09/28 02:51:13;;;;;;;4.60;4.10;;;;;;;;;;5023854;28;20062;-70
2023/09/28 02:53:40;;;;;;;9.43;4.55;;;;;;;;;;5024583;28;20061;-70
2023/09/28 02:56:07;;;;;;;9.57;4.63;;;;;;;;;;5025414;28;20543;-70
2023/09/28 02:58:34;;;;;;;11.57;4.90;;;;;;;;;;5025683;28;20100;-71
2023/09/28 03:01:01;;;;;;;5.60;4.80;;;;;;;;;;5024491;28;20517;-70
2023/09/28 03:03:28;;;;;;;8.77;4.97;;;;;;;;;;5024241;28;20054;-71
2023/09/28 03:05:55;;;;;;;7.57;4.63;;;;;;;;;;5025373;28;20583;-70
2023/09/28 03:08:22;;;;;;;6.72;5.05;;;;;;;;;;5024906;28;20972;-70
2023/09/28 03:10:48;;;;;;;5.90;4.55;;;;;;;;;;5030429;28;20145;-70
2023/09/28 03:13:15;;;;;;;8.02;4.75;;;;;;;;;;5025558;28;20118;-71
2023/09/28 03:15:43;;;;;;;11.27;4.82;;;;;;;;;;5025689;28;20050;-70
2023/09/28 03:18:10;;;;;;;8.52;4.85;;;;;;;;;;5024979;28;20084;-70
2023/09/28 03:20:37;;;;;;;8.15;4.63;;;;;;;;;;5023563;28;20065;-70
2023/09/28 03:23:04;;;;;;;10.77;5.25;;;;;;;;;;5035023;28;20089;-70
2023/09/28 03:25:30;;;;;;;5.57;4.45;;;;;;;;;;5028205;28;20054;-70
2023/09/28 03:27:57;;;;;;;7.50;5.00;;;;;;;;;;5024083;28;20500;-71
2023/09/28 03:30:24;;;;;;;7.95;5.00;;;;;;;;;;5023707;28;20116;-70
2023/09/28 03:32:51;;;;;;;8.38;4.53;;;;;;;;;;5024826;28;20532;-70
2023/09/28 03:35:19;;;;;;;9.80;4.95;;;;;;;;;;5025733;28;20089;-70
2023/09/28 03:37:46;;;;;;;6.47;4.70;;;;;;;;;;5024616;28;20057;-70
2023/09/28 03:40:13;;;;;;;11.57;4.85;;;;;;;;;;5005655;28;20057;-70
2023/09/28 03:42:41;;;;;;;6.72;4.93;;;;;;;;;;5031401;28;20049;-71
2023/09/28 03:45:08;;;;;;;15.35;5.18;;;;;;;;;;5024955;28;20583;-70
2023/09/28 03:47:39;;;;;;;9.95;5.75;;;;;;;;;;5025582;28;20100;-70
2023/09/28 03:50:06;;;;;;;7.00;4.63;;;;;;;;;;5024423;28;20069;-70
2023/09/28 03:52:34;;;;;;;7.18;4.85;;;;;;;;;;5024630;28;20132;-70
2023/09/28 03:55:01;;;;;;;9.55;4.95;;;;;;;;;;5023793;28;20060;-70
2023/09/28 03:57:27;;;;;;;9.55;5.20;;;;;;;;;;5023999;28;20060;-70
2023/09/28 03:59:53;;;;;;;8.77;4.70;;;;;;;;;;5024269;28;20053;-73
2023/09/28 04:02:20;;;;;;;6.13;4.95;;;;;;;;;;5019303;28;20141;-70
2023/09/28 04:04:46;;;;;;;10.18;5.25;;;;;;;;;;5019946;28;20108;-70
2023/09/28 04:07:13;;;;;;;8.05;5.03;;;;;;;;;;4987963;28;20058;-70
2023/09/28 04:09:39;;;;;;;7.82;4.95;;;;;;;;;;5020347;28;20073;-70
2023/09/28 04:12:06;;;;;;;9.77;5.40;;;;;;;;;;5023917;28;20068;-71
2023/09/28 04:14:32;;;;;;;8.05;5.72;;;;;;;;;;5024301;28;20061;-70
2023/09/28 04:16:59;;;;;;;8.07;5.68;;;;;;;;;;5023919;28;20054;-71
2023/09/28 04:19:25;;;;;;;8.85;5.93;;;;;;;;;;5023647;28;20065;-70
2023/09/28 04:21:52;;;;;;;8.93;5.75;;;;;;;;;;5023922;28;20050;-70
2023/09/28 04:24:19;;;;;;;18.05;5.95;;;;;;;;;;5023449;28;20065;-70
2023/09/28 04:26:45;;;;;;;9.85;5.60;;;;;;;;;;5023742;28;20057;-70
2023/09/28 04:29:11;;;;;;;7.00;5.57;;;;;;;;;;5023694;28;20135;-70
2023/09/28 04:31:40;;;;;;;8.32;5.47;;;;;;;;;;5023413;28;20507;-71
2023/09/28 04:34:07;;;;;;;10.98;6.38;;;;;;;;;;5022547;28;20049;-71
2023/09/28 04:36:34;;;;;;;9.63;5.55;;;;;;;;;;5023024;28;20058;-71
2023/09/28 04:39:01;;;;;;;8.73;5.43;;;;;;;;;;5009834;28;20061;-71
2023/09/28 04:41:27;;;;;;;10.93;6.25;;;;;;;;;;4999925;28;20484;-70
2023/09/28 04:43:54;;;;;;;8.27;5.63;;;;;;;;;;5011093;28;20053;-70
2023/09/28 04:46:21;;;;;;;10.65;5.80;;;;;;;;;;5023077;28;20058;-71
2023/09/28 04:48:48;;;;;;;16.60;7.13;;;;;;;;;;5024197;28;20085;-70
2023/09/28 04:51:14;;;;;;;8.50;6.40;;;;;;;;;;5006193;28;20525;-71
2023/09/28 04:53:40;;;;;;;14.10;6.20;;;;;;;;;;5023450;28;20096;-70
2023/09/28 04:56:07;;;;;;;10.02;5.38;;;;;;;;;;5032379;28;20149;-70
2023/09/28 04:58:34;;;;;;;10.82;5.85;;;;;;;;;;5027001;28;20137;-71
2023/09/28 05:01:00;;;;;;;13.15;5.55;;;;;;;;;;5023924;28;20046;-70
2023/09/28 05:03:27;;;;;;;9.50;4.82;;;;;;;;;;5023777;28;20064;-71
2023/09/28 05:05:53;;;;;;;12.63;5.45;;;;;;;;;;5023463;28;20054;-70
2023/09/28 05:08:20;;;;;;;12.38;4.90;;;;;;;;;;5024105;28;20420;-70
2023/09/28 05:10:47;;;;;;;10.43;5.20;;;;;;;;;;5023008;28;20141;-70
2023/09/28 05:13:14;;;;;;;19.73;5.28;;;;;;;;;;5023909;28;20054;-69
2023/09/28 05:15:40;;;;;;;15.05;4.75;;;;;;;;;;5022927;28;20080;-70
2023/09/28 05:18:07;;;;;;;16.90;4.63;;;;;;;;;;5022980;28;20196;-70
2023/09/28 05:20:33;;;;;;;14.93;4.65;;;;;;;;;;5023745;28;20054;-72
2023/09/28 05:23:00;;;;;;;12.60;3.67;;;;;;;;;;5006103;28;20058;-72
2023/09/28 05:25:26;;;;;;;21.70;4.18;;;;;;;;;;5023050;28;20054;-70
2023/09/28 05:27:53;;;;;;;8.88;3.75;;;;;;;;;;5023258;28;20050;-71
2023/09/28 05:30:19;;;;;;;16.08;3.75;;;;;;;;;;5023782;28;20508;-70
2023/09/28 05:32:51;;;;;;;9.52;3.47;;;;;;;;;;5026772;28;20062;-72
2023/09/28 05:35:17;;;;;;;11.20;3.95;;;;;;;;;;5027325;28;20058;-71
2023/09/28 05:37:47;;;;;;;12.38;3.83;;;;;;;;;;5025659;28;20057;-69
2023/09/28 05:40:14;;;;;;;13.02;4.25;;;;;;;;;;5026445;28;20046;-70
2023/09/28 05:42:41;;;;;;;17.48;4.75;;;;;;;;;;5025903;28;20053;-70
2023/09/28 05:45:07;;;;;;;10.25;4.25;;;;;;;;;;5026763;28;20058;-69
2023/09/28 05:47:34;;;;;;;13.90;3.42;;;;;;;;;;5026136;28;20508;-70
2023/09/28 05:50:02;;;;;;;13.48;3.58;;;;;;;;;;5022273;28;20054;-70
2023/09/28 05:52:28;;;;;;;14.98;5.03;;;;;;;;;;5026083;28;20057;-70
2023/09/28 05:54:54;;;;;;;11.43;3.00;;;;;;;;;;5025792;28;20057;-70
2023/09/28 05:57:22;;;;;;;12.52;3.13;;;;;;;;;;5026693;28;20800;-69
2023/09/28 05:59:49;;;;;;;11.32;3.35;;;;;;;;;;5025556;28;20080;-69
2023/09/28 06:02:16;;;;;;;17.33;5.25;;;;;;;;;;5026332;28;20138;-68
2023/09/28 06:04:42;;;;;;;17.25;4.28;;;;;;;;;;5023562;28;20056;-68
2023/09/28 06:07:11;;;;;;;19.20;4.28;;;;;;;;;;5024733;28;20058;-69
2023/09/28 06:09:38;;;;;;;18.25;4.10;;;;;;;;;;5019739;28;20061;-68
2023/09/28 06:12:06;;;;;;;19.75;3.88;;;;;;;;;;5025746;28;20588;-68
2023/09/28 06:14:35;;;;;;;20.73;3.10;;;;;;;;;;5024461;28;20523;-70
2023/09/28 06:17:02;;;;;;;12.27;3.33;;;;;;;;;;5026123;28;20056;-69
2023/09/28 06:19:28;;;;;;;18.13;3.53;;;;;;;;;;5020440;28;20050;-69
2023/09/28 06:21:55;;;;;;;20.33;3.75;;;;;;;;;;5023096;28;20058;-69
2023/09/28 06:24:21;;;;;;;19.73;4.05;;;;;;;;;;5024366;28;20058;-69
2023/09/28 06:26:50;;;;;;;17.95;4.05;;;;;;;;;;5018831;28;20487;-69
2023/09/28 06:29:17;;;;;;;18.13;3.72;;;;;;;;;;5026248;28;20057;-69
2023/09/28 06:31:43;;;;;;;24.73;4.20;;;;;;;;;;5025356;28;20112;-69
2023/09/28 06:34:10;;;;;;;11.68;2.38;;;;;;;;;;5024818;28;20074;-69
2023/09/28 06:36:37;;;;;;;25.65;3.97;;;;;;;;;;5025661;28;20077;-69
2023/09/28 06:39:08;;;;;;;18.77;3.40;;;;;;;;;;5009053;28;20061;-69
2023/09/28 06:41:36;;;;;;;13.50;3.13;;;;;;;;;;5024768;28;20060;-69
2023/09/28 06:44:03;;;;;;;21.50;3.17;;;;;;;;;;5024668;28;20531;-68
2023/09/28 06:46:29;;;;;;;13.90;3.25;;;;;;;;;;5024572;28;20050;-69
2023/09/28 06:48:56;;;;;;;21.13;3.50;;;;;;;;;;5025132;28;20058;-69
2023/09/28 06:51:25;;;;;;;21.38;4.45;;;;;;;;;;5026029;28;20089;-69
2023/09/28 06:53:52;;;;;;;17.58;2.63;;;;;;;;;;5029730;28;20452;-69
2023/09/28 06:56:20;;;;;;;17.27;4.05;;;;;;;;;;5025789;28;20551;-68
2023/09/28 06:58:47;;;;;;;23.42;4.30;;;;;;;;;;5026139;28;20050;-68
2023/09/28 07:01:13;;;;;;;21.05;3.85;;;;;;;;;;5026147;28;20918;-70
2023/09/28 07:03:40;;;;;;;21.65;4.00;;;;;;;;;;5025240;28;20083;-68
2023/09/28 07:06:06;;;;;;;21.92;4.30;;;;;;;;;;5008522;28;20058;-69
2023/09/28 07:08:33;;;;;;;21.55;4.03;;;;;;;;;;5006427;28;20054;-69
2023/09/28 07:10:59;;;;;;;23.58;4.15;;;;;;;;;;5005903;28;20061;-69
2023/09/28 07:13:27;;;;;;;25.40;4.03;;;;;;;;;;5015990;28;20606;-69
2023/09/28 07:15:56;;;;;;;25.60;5.28;;;;;;;;;;5025941;28;20054;-70
2023/09/28 07:18:23;;;;;;;17.08;3.85;;;;;;;;;;5021371;28;20058;-70
2023/09/28 07:20:51;;;;;;;17.45;3.65;;;;;;;;;;5029388;28;20057;-68
2023/09/28 07:23:17;;;;;;;18.60;3.53;;;;;;;;;;5045139;28;20053;-69
2023/09/28 07:25:44;;;;;;;20.58;4.50;;;;;;;;;;5045133;28;20161;-68
2023/09/28 07:28:12;;;;;;;24.95;4.00;;;;;;;;;;5028421;28;20061;-69
2023/09/28 07:30:38;;;;;;;16.10;2.80;;;;;;;;;;5024519;28;20621;-69
2023/09/28 07:33:05;;;;;;;17.40;3.88;;;;;;;;;;5021067;28;20054;-68
2023/09/28 07:35:32;;;;;;;13.10;3.03;;;;;;;;;;5016003;28;20439;-68
2023/09/28 07:37:58;;;;;;;22.60;3.53;;;;;;;;;;5024826;28;20081;-69
2023/09/28 07:40:26;;;;;;;22.40;4.03;;;;;;;;;;5024604;28;20088;-68
2023/09/28 07:43:13;;;;;;;18.90;3.95;;;;;;;;;;5024626;28;20057;-69
2023/09/28 07:45:40;;;;;;;17.50;4.10;;;;;;;;;;5022851;28;20053;-68
2023/09/28 07:48:07;;;;;;;14.38;3.65;;;;;;;;;;5023203;28;20053;-69
2023/09/28 07:50:34;;;;;;;22.88;3.65;;;;;;;;;;5025255;28;20570;-69
2023/09/28 07:53:00;;;;;;;21.00;4.05;;;;;;;;;;5023765;28;20136;-70
2023/09/28 07:55:27;;;;;;;12.15;2.45;;;;;;;;;;5024599;28;20054;-70
2023/09/28 07:57:53;;;;;;;15.70;2.88;;;;;;;;;;5024934;28;20508;-70
2023/09/28 08:00:28;;;;;;;15.52;3.70;;;;;;;;;;5024000;28;20052;-69
2023/09/28 08:02:55;;;;;;;17.67;3.35;;;;;;;;;;5025214;28;20218;-69
2023/09/28 08:05:22;;;;;;;18.45;3.08;;;;;;;;;;5015184;28;20698;-69
2023/09/28 08:07:49;;;;;;;16.77;2.83;;;;;;;;;;5015255;28;20520;-68
2023/09/28 08:10:35;;;;;;;24.15;3.75;;;;;;;;;;5024008;28;20480;-69
2023/09/28 08:13:02;;;;;;;15.20;2.95;;;;;;;;;;5024713;28;20050;-69
2023/09/28 08:15:29;;;;;;;18.95;4.22;;;;;;;;;;5006137;28;20119;-70
2023/09/28 08:18:03;;;;;;;18.25;3.05;;;;;;;;;;5023953;28;20064;-69
2023/09/28 08:20:33;;;;;;;18.75;4.03;;;;;;;;;;5003864;28;20086;-70
2023/09/28 08:23:00;;;;;;;11.93;3.45;;;;;;;;;;5009487;28;20073;-73
2023/09/28 08:25:30;;;;;;;21.35;4.20;;;;;;;;;;5023837;28;20615;-71
2023/09/28 08:27:56;;;;;;;21.38;3.38;;;;;;;;;;5008945;28;20058;-70
2023/09/28 08:30:23;;;;;;;11.98;2.75;;;;;;;;;;5004225;28;20508;-69
2023/09/28 08:32:50;;;;;;;22.85;3.42;;;;;;;;;;4986434;28;20564;-69
2023/09/28 08:35:16;;;;;;;15.68;3.42;;;;;;;;;;5020791;28;20058;-68
2023/09/28 08:37:43;;;;;;;18.85;3.30;;;;;;;;;;5023494;28;20148;-68
2023/09/28 08:40:10;;;;;;;17.27;3.63;;;;;;;;;;5023536;28;20539;-68
2023/09/28 08:42:37;;;;;;;21.98;3.78;;;;;;;;;;5024007;28;20060;-68
2023/09/28 08:45:05;;;;;;;25.83;4.38;;;;;;;;;;5024565;28;20538;-68
2023/09/28 08:47:35;;;;;;;21.25;4.60;;;;;;;;;;5022263;28;20478;-69
2023/09/28 08:50:03;;;;;;;15.52;3.92;;;;;;;;;;5018947;28;20469;-69
2023/09/28 08:52:30;;;;;;;21.05;3.55;;;;;;;;;;5023392;28;20615;-69
2023/09/28 08:54:58;;;;;;;21.92;4.40;;;;;;;;;;5024077;28;20906;-68
2023/09/28 08:57:26;;;;;;;15.60;3.63;;;;;;;;;;5023776;28;20061;-68
2023/09/28 08:59:52;;;;;;;23.27;3.90;;;;;;;;;;5023559;28;20060;-68
2023/09/28 09:02:19;;;;;;;12.38;3.08;;;;;;;;;;5023316;28;20066;-69
2023/09/28 09:04:45;;;;;;;18.63;3.55;;;;;;;;;;5000038;28;20058;-68
2023/09/28 09:07:12;;;;;;;21.00;3.88;;;;;;;;;;5022518;28;20133;-68
2023/09/28 09:09:40;;;;;;;22.17;3.47;;;;;;;;;;5022121;28;20073;-68
2023/09/28 09:12:11;;;;;;;17.60;3.40;;;;;;;;;;5023110;28;20054;-69
2023/09/28 09:14:38;;;;;;;13.13;3.97;;;;;;;;;;5022999;28;20046;-71
2023/09/28 09:17:04;;;;;;;22.65;4.40;;;;;;;;;;5023054;28;20152;-71
2023/09/28 09:19:31;;;;;;;17.92;4.28;;;;;;;;;;5022390;28;20050;-68
2023/09/28 09:21:58;;;;;;;23.33;3.85;;;;;;;;;;5023122;28;20049;-71
2023/09/28 09:24:25;;;;;;;22.63;4.10;;;;;;;;;;5017233;28;20050;-67
2023/09/28 09:26:56;;;;;;;19.25;3.05;;;;;;;;;;5004626;28;20109;-71
2023/09/28 09:29:23;;;;;;;17.27;3.58;;;;;;;;;;5022805;28;20053;-71
2023/09/28 09:31:50;;;;;;;16.25;4.93;;;;;;;;;;5022674;28;20054;-72
2023/09/28 09:34:19;;;;;;;19.20;4.45;;;;;;;;;;5022236;28;20085;-69
2023/09/28 09:37:03;;;;;;;18.45;3.58;;;;;;;;;;5021465;28;20097;-69
2023/09/28 09:39:30;;;;;;;14.55;3.22;;;;;;;;;;5012116;28;20053;-72
2023/09/28 09:42:00;;;;;;;20.90;4.07;;;;;;;;;;5022170;28;21166;-69
2023/09/28 09:44:27;;;;;;;22.15;4.70;;;;;;;;;;5022616;28;20061;-68
2023/09/28 09:46:54;;;;;;;25.25;4.82;;;;;;;;;;5021669;28;20050;-70
2023/09/28 09:49:24;;;;;;;17.52;3.40;;;;;;;;;;5021653;28;20057;-71
2023/09/28 09:51:51;;;;;;;16.42;3.85;;;;;;;;;;5022468;28;20062;-69
2023/09/28 09:54:19;;;;;;;25.50;6.30;;;;;;;;;;5022394;28;20061;-67
2023/09/28 09:56:47;;;;;;;23.42;3.70;;;;;;;;;;5017358;28;20061;-71
2023/09/28 09:59:18;;;;;;;20.52;3.70;;;;;;;;;;5022002;28;20100;-70
2023/09/28 10:01:47;;;;;;;19.85;4.47;;;;;;;;;;5016813;28;20193;-72
2023/09/28 10:04:14;;;;;;;19.27;3.63;;;;;;;;;;5002793;28;20510;-68
2023/09/28 10:06:43;;;;;;;27.20;6.00;;;;;;;;;;5017520;28;20050;-71
2023/09/28 10:09:10;;;;;;;20.42;4.30;;;;;;;;;;5020792;28;20054;-69
2023/09/28 10:11:38;;;;;;;22.65;4.03;;;;;;;;;;5022619;28;20050;-68
2023/09/28 10:14:05;;;;;;;19.05;3.97;;;;;;;;;;5014444;28;20054;-69
2023/09/28 10:16:34;;;;;;;16.15;3.13;;;;;;;;;;5002198;28;20062;-71
2023/09/28 10:19:04;;;;;;;20.23;4.15;;;;;;;;;;5024618;28;20057;-68
2023/09/28 10:21:37;;;;;;;20.42;4.45;;;;;;;;;;5024007;28;20061;-69
2023/09/28 10:24:08;;;;;;;17.60;3.13;;;;;;;;;;5020659;28;20050;-68
2023/09/28 10:26:35;;;;;;;19.63;3.25;;;;;;;;;;5025236;28;20855;-69
2023/09/28 10:29:06;;;;;;;16.75;3.33;;;;;;;;;;5025962;28;20058;-68
2023/09/28 10:31:35;;;;;;;13.35;2.88;;;;;;;;;;5025259;28;20064;-71
2023/09/28 10:34:23;;;;;;;19.38;3.70;;;;;;;;;;5025536;28;20068;-69
2023/09/28 10:37:05;;;;;;;15.00;2.95;;;;;;;;;;5016399;28;20113;-71
2023/09/28 10:39:34;;;;;;;17.73;3.53;;;;;;;;;;5012267;28;20128;-69
2023/09/28 10:42:05;;;;;;;19.95;4.50;;;;;;;;;;5024999;28;20049;-69
2023/09/28 10:44:31;;;;;;;20.98;4.05;;;;;;;;;;5024557;28;20053;-68
2023/09/28 10:46:58;;;;;;;14.07;3.08;;;;;;;;;;5023082;28;20141;-68
2023/09/28 10:49:28;;;;;;;19.88;3.83;;;;;;;;;;5004147;28;20058;-68
2023/09/28 10:51:56;;;;;;;15.27;3.05;;;;;;;;;;5011046;28;20058;-70
2023/09/28 10:54:24;;;;;;;15.35;3.63;;;;;;;;;;5025448;28;20053;-69
2023/09/28 10:56:51;;;;;;;20.08;3.75;;;;;;;;;;5024570;28;20472;-68
2023/09/28 10:59:18;;;;;;;13.82;3.40;;;;;;;;;;5024458;28;20046;-67
2023/09/28 11:01:46;;;;;;;15.95;3.95;;;;;;;;;;5024199;28;20564;-69
2023/09/28 11:04:13;;;;;;;18.30;4.70;;;;;;;;;;5023447;28;20060;-69
2023/09/28 11:06:41;;;;;;;18.33;3.47;;;;;;;;;;5017123;28;20054;-69
2023/09/28 11:09:09;;;;;;;10.63;2.97;;;;;;;;;;5014773;28;20595;-70
2023/09/28 11:11:37;;;;;;;17.17;3.55;;;;;;;;;;5024041;28;20049;-69
2023/09/28 11:14:07;;;;;;;15.35;3.20;;;;;;;;;;5024175;28;20840;-68
2023/09/28 11:16:33;;;;;;;22.05;4.28;;;;;;;;;;5025370;28;20053;-70
2023/09/28 11:19:00;;;;;;;15.40;3.75;;;;;;;;;;5024308;28;20508;-69
2023/09/28 11:21:28;;;;;;;16.75;3.80;;;;;;;;;;5005607;28;20049;-69
2023/09/28 11:23:55;;;;;;;15.80;3.05;;;;;;;;;;4988536;28;20076;-69
2023/09/28 11:26:22;;;;;;;13.13;3.13;;;;;;;;;;5005321;28;20060;-70
2023/09/28 11:28:50;;;;;;;21.85;3.40;;;;;;;;;;5022912;28;20558;-69
2023/09/28 11:31:16;;;;;;;18.58;3.20;;;;;;;;;;5022548;28;20061;-70
2023/09/28 11:33:44;;;;;;;16.48;3.40;;;;;;;;;;5023386;28;20137;-70
2023/09/28 11:36:17;;;;;;;14.13;3.08;;;;;;;;;;5021944;28;20062;-70
2023/09/28 11:38:47;;;;;;;13.27;2.90;;;;;;;;;;5008645;28;20064;-71
2023/09/28 11:41:13;;;;;;;17.95;3.53;;;;;;;;;;5021574;28;20073;-71
2023/09/28 11:43:48;;;;;;;20.35;3.85;;;;;;;;;;5023481;28;20054;-71
2023/09/28 11:46:22;;;;;;;20.00;3.80;;;;;;;;;;4999871;28;20073;-71
2023/09/28 11:49:05;;;;;;;14.35;3.42;;;;;;;;;;4987630;28;20579;-71
2023/09/28 11:51:32;;;;;;;19.55;4.30;;;;;;;;;;5025098;28;20050;-70
2023/09/28 11:53:59;;;;;;;14.82;3.47;;;;;;;;;;5020249;28;20054;-70
2023/09/28 11:56:27;;;;;;;17.15;3.53;;;;;;;;;;5015618;28;20064;-70
2023/09/28 11:58:53;;;;;;;14.45;2.92;;;;;;;;;;5023246;28;20116;-69
2023/09/28 12:01:20;;;;;;;14.95;3.17;;;;;;;;;;5024108;28;20073;-69
2023/09/28 12:03:47;;;;;;;15.93;3.30;;;;;;;;;;5023751;28;20053;-69
2023/09/28 12:06:15;;;;;;;18.38;3.83;;;;;;;;;;5023197;28;20054;-69
2023/09/28 12:08:42;;;;;;;15.23;2.92;;;;;;;;;;5023626;28;20081;-70
2023/09/28 12:11:08;;;;;;;15.48;4.00;;;;;;;;;;5005108;28;20528;-69
2023/09/28 12:13:36;;;;;;;10.60;2.85;;;;;;;;;;5022994;28;20061;-70
2023/09/28 12:16:03;;;;;;;16.10;3.60;;;;;;;;;;5019778;28;20088;-71
2023/09/28 12:18:30;;;;;;;19.75;3.63;;;;;;;;;;5022590;28;20057;-71
2023/09/28 12:20:56;;;;;;;19.73;2.80;;;;;;;;;;5022990;28;20497;-71
2023/09/28 12:23:23;;;;;;;18.17;3.47;;;;;;;;;;5020079;28;20136;-70
2023/09/28 12:25:49;;;;;;;15.20;2.63;;;;;;;;;;5012104;28;20057;-71
2023/09/28 12:28:16;;;;;;;14.88;3.25;;;;;;;;;;5023516;28;20145;-72
2023/09/28 12:30:43;;;;;;;13.05;2.95;;;;;;;;;;5022646;28;20060;-72
2023/09/28 12:33:09;;;;;;;16.08;3.03;;;;;;;;;;5023484;28;20054;-73
2023/09/28 12:35:37;;;;;;;15.00;2.20;;;;;;;;;;5023298;28;20056;-73
2023/09/28 12:38:04;;;;;;;10.38;2.70;;;;;;;;;;5022454;28;20077;-72
2023/09/28 12:40:32;;;;;;;10.30;2.72;;;;;;;;;;5012850;28;20112;-71
2023/09/28 12:43:05;;;;;;;9.90;2.78;;;;;;;;;;5022928;28;20057;-72
2023/09/28 12:45:35;;;;;;;12.77;3.17;;;;;;;;;;5023876;28;20061;-72
2023/09/28 12:48:02;;;;;;;8.05;2.28;;;;;;;;;;5022457;28;20058;-73
2023/09/28 12:50:29;;;;;;;11.95;3.08;;;;;;;;;;5023168;28;20058;-73
2023/09/28 12:52:56;;;;;;;10.25;2.28;;;;;;;;;;5022972;28;20046;-71
2023/09/28 12:55:22;;;;;;;15.93;2.85;;;;;;;;;;5023538;28;20054;-71
2023/09/28 12:57:52;;;;;;;17.40;4.30;;;;;;;;;;5023357;28;20527;-72
2023/09/28 13:00:18;;;;;;;17.88;3.20;;;;;;;;;;5022467;28;20053;-72
2023/09/28 13:02:46;;;;;;;10.82;2.33;;;;;;;;;;5022916;28;20058;-72
2023/09/28 13:05:14;;;;;;;13.55;3.03;;;;;;;;;;5022513;28;20108;-72
2023/09/28 13:07:41;;;;;;;17.90;2.97;;;;;;;;;;5022866;28;20056;-73
2023/09/28 13:10:10;;;;;;;8.95;2.65;;;;;;;;;;5022564;28;20781;-71
2023/09/28 13:12:36;;;;;;;10.10;2.58;;;;;;;;;;5005113;28;20058;-70
2023/09/28 13:15:05;;;;;;;11.68;3.08;;;;;;;;;;5022849;28;20062;-71
2023/09/28 13:17:32;;;;;;;11.05;2.55;;;;;;;;;;5017089;28;20172;-71
2023/09/28 13:19:59;;;;;;;13.98;3.72;;;;;;;;;;5022278;28;20144;-72
2023/09/28 13:22:25;;;;;;;15.23;4.40;;;;;;;;;;5022208;28;20062;-70
2023/09/28 13:24:53;;;;;;;14.23;3.40;;;;;;;;;;5021912;28;20119;-71
2023/09/28 13:27:20;;;;;;;8.10;2.55;;;;;;;;;;5022980;28;20053;-70
2023/09/28 13:29:46;;;;;;;8.63;2.60;;;;;;;;;;5024155;28;20058;-71
2023/09/28 13:32:13;;;;;;;13.02;3.22;;;;;;;;;;5005180;28;20090;-71
2023/09/28 13:34:43;;;;;;;18.75;3.42;;;;;;;;;;5022296;28;20060;-72
2023/09/28 13:37:11;;;;;;;8.18;2.13;;;;;;;;;;5021426;28;20054;-72
2023/09/28 13:39:37;;;;;;;12.57;2.65;;;;;;;;;;5004842;28;20677;-72
2023/09/28 13:42:04;;;;;;;11.38;3.00;;;;;;;;;;5022587;28;20090;-71
2023/09/28 13:44:32;;;;;;;9.45;2.95;;;;;;;;;;5021507;28;20133;-72
2023/09/28 13:47:02;;;;;;;7.95;2.35;;;;;;;;;;5020121;28;20085;-74
2023/09/28 13:49:29;;;;;;;15.95;2.88;;;;;;;;;;5022360;28;20054;-74
2023/09/28 13:51:59;;;;;;;8.77;2.63;;;;;;;;;;5011248;28;20066;-74
2023/09/28 13:54:26;;;;;;;9.43;2.58;;;;;;;;;;5025630;28;20058;-73
2023/09/28 13:56:58;;;;;;;8.52;2.45;;;;;;;;;;5025311;28;20424;-74
2023/09/28 13:59:26;;;;;;;9.30;2.67;;;;;;;;;;5022967;28;20054;-75
2023/09/28 14:01:52;;;;;;;13.30;3.05;;;;;;;;;;5006806;28;20093;-74
2023/09/28 14:04:19;;;;;;;7.40;2.08;;;;;;;;;;5022919;28;20539;-74
2023/09/28 14:06:46;;;;;;;6.93;1.70;;;;;;;;;;5024954;28;20050;-72
2023/09/28 14:09:18;;;;;;;5.43;2.10;;;;;;;;;;5025820;28;20065;-72
2023/09/28 14:11:47;;;;;;;12.93;2.90;;;;;;;;;;5025322;28;20104;-72
2023/09/28 14:14:14;;;;;;;11.90;2.60;;;;;;;;;;5026227;28;20440;-75
2023/09/28 14:16:41;;;;;;;12.60;3.17;;;;;;;;;;5006295;28;20054;-75
2023/09/28 14:19:08;;;;;;;12.32;2.45;;;;;;;;;;5015031;28;20056;-72
2023/09/28 14:21:35;;;;;;;8.30;2.35;;;;;;;;;;5024351;28;20469;-71
2023/09/28 14:24:06;;;;;;;8.50;2.20;;;;;;;;;;5025930;28;20090;-72
2023/09/28 14:26:32;;;;;;;12.20;2.70;;;;;;;;;;5024555;28;21019;-72
2023/09/28 14:29:00;;;;;;;13.27;2.80;;;;;;;;;;5024894;28;20149;-73
2023/09/28 14:31:27;;;;;;;11.07;2.42;;;;;;;;;;5023766;28;20508;-73
2023/09/28 14:33:53;;;;;;;8.18;2.28;;;;;;;;;;5025485;28;20851;-72
2023/09/28 14:36:22;;;;;;;7.40;2.40;;;;;;;;;;5023218;28;20084;-72